createdAt,value
2018-05-31T00:03:00.019Z,101032.38
2018-05-31T00:06:06.165Z,101036.73
2018-05-31T00:09:12.103Z,101033.21
2018-05-31T00:12:18.010Z,101034.41
2018-05-31T00:15:23.462Z,101030.16
2018-05-31T00:18:28.927Z,101039.70
2018-05-31T00:21:34.973Z,101034.30
2018-05-31T00:24:41.106Z,101025.50
2018-05-31T00:27:47.404Z,101019.00
2018-05-31T00:30:52.819Z,101011.29
2018-05-31T00:33:58.015Z,101014.67
2018-05-31T00:37:04.858Z,101009.98
2018-05-31T00:40:10.715Z,101003.88
2018-05-31T00:43:16.966Z,100996.20
2018-05-31T00:46:22.100Z,100996.19
2018-05-31T00:49:27.289Z,100999.83
2018-05-31T00:52:32.491Z,101004.13
2018-05-31T00:55:49.555Z,101000.03
2018-05-31T00:58:55.346Z,100997.88
2018-05-31T01:02:01.592Z,100994.77
2018-05-31T01:05:07.019Z,100999.16
2018-05-31T01:08:12.854Z,100996.72
2018-05-31T01:11:18.440Z,100994.41
2018-05-31T01:14:24.498Z,100990.88
2018-05-31T01:17:31.247Z,100993.14
2018-05-31T01:20:36.423Z,100994.70
2018-05-31T01:23:42.458Z,100999.05
2018-05-31T01:26:48.558Z,100993.97
2018-05-31T01:29:54.831Z,100993.27
2018-05-31T01:33:01.086Z,100992.09
2018-05-31T01:36:07.226Z,100983.98
2018-05-31T01:39:20.441Z,100984.94
2018-05-31T01:42:26.386Z,100983.19
2018-05-31T01:45:32.333Z,100977.19
2018-05-31T01:48:38.562Z,100980.90
2018-05-31T01:51:44.812Z,100978.23
2018-05-31T01:54:51.212Z,100985.05
2018-05-31T01:57:56.437Z,100986.72
2018-05-31T02:01:02.760Z,100985.63
2018-05-31T02:04:08.789Z,100974.55
2018-05-31T02:07:14.200Z,100980.84
2018-05-31T02:10:19.927Z,100974.84
2018-05-31T02:13:25.068Z,100968.64
2018-05-31T02:16:30.483Z,100975.39
2018-05-31T02:19:36.599Z,100980.16
2018-05-31T02:22:42.628Z,100979.64
2018-05-31T02:25:48.753Z,100980.48
2018-05-31T02:28:54.861Z,100987.20
2018-05-31T02:32:00.961Z,100985.55
2018-05-31T02:35:07.297Z,100989.63
2018-05-31T02:38:12.708Z,100993.14
2018-05-31T02:41:18.114Z,100991.03
2018-05-31T02:44:23.585Z,100992.98
2018-05-31T02:47:29.911Z,100988.94
2018-05-31T02:50:34.455Z,100998.80
2018-05-31T02:53:40.809Z,100995.09
2018-05-31T02:56:47.033Z,100994.41
2018-05-31T02:59:52.975Z,101000.20
2018-05-31T03:02:58.396Z,100990.19
2018-05-31T03:06:04.624Z,100993.43
2018-05-31T03:09:10.552Z,100988.94
2018-05-31T03:12:15.980Z,100994.58
2018-05-31T03:15:22.023Z,100997.59
2018-05-31T03:18:27.442Z,101003.96
2018-05-31T03:21:32.868Z,100995.66
2018-05-31T03:24:39.317Z,100988.28
2018-05-31T03:27:45.113Z,100988.30
2018-05-31T03:30:51.108Z,100994.97
2018-05-31T03:33:56.627Z,101004.31
2018-05-31T03:37:03.042Z,101007.14
2018-05-31T03:40:08.967Z,101004.66
2018-05-31T03:43:14.404Z,101009.09
2018-05-31T03:46:20.491Z,101006.96
2018-05-31T03:49:26.444Z,101006.27
2018-05-31T03:52:31.623Z,101008.80
2018-05-31T03:55:37.034Z,101014.82
2018-05-31T03:58:42.445Z,101026.51
2018-05-31T04:01:48.828Z,101044.27
2018-05-31T04:04:55.059Z,101040.24
2018-05-31T04:08:01.391Z,101041.21
2018-05-31T04:11:07.324Z,101034.28
2018-05-31T04:14:12.737Z,101028.62
2018-05-31T04:17:18.964Z,101039.31
2018-05-31T04:20:25.073Z,101026.52
2018-05-31T04:23:31.040Z,101029.75
2018-05-31T04:26:37.264Z,101030.80
2018-05-31T04:29:43.327Z,101024.50
2018-05-31T04:32:48.721Z,101029.23
2018-05-31T04:35:54.137Z,101020.20
2018-05-31T04:38:59.575Z,101006.15
2018-05-31T04:42:05.376Z,101021.77
2018-05-31T04:45:11.453Z,101017.35
2018-05-31T04:48:17.373Z,101012.45
2018-05-31T04:51:23.703Z,101014.82
2018-05-31T04:54:28.682Z,101011.64
2018-05-31T04:57:34.090Z,101001.95
2018-05-31T05:00:39.512Z,101020.11
2018-05-31T05:03:44.920Z,101006.84
2018-05-31T05:06:50.344Z,101017.50
2018-05-31T05:09:55.745Z,101019.45
2018-05-31T05:13:01.996Z,101029.76
2018-05-31T05:16:07.202Z,101023.67
2018-05-31T05:19:12.377Z,101023.86
2018-05-31T05:22:17.784Z,101024.51
2018-05-31T05:25:22.872Z,101028.64
2018-05-31T05:28:29.191Z,101034.05
2018-05-31T05:31:35.732Z,101026.97
2018-05-31T05:34:42.050Z,101029.81
2018-05-31T05:37:47.508Z,101029.52
2018-05-31T05:40:52.680Z,101030.14
2018-05-31T05:43:58.106Z,101032.86
2018-05-31T05:47:04.155Z,101043.37
2018-05-31T05:50:09.442Z,101043.05
2018-05-31T05:53:15.417Z,101040.09
2018-05-31T05:56:21.557Z,101037.70
2018-05-31T05:59:27.291Z,101047.27
2018-05-31T06:02:33.665Z,101047.24
2018-05-31T06:05:39.612Z,101047.30
2018-05-31T06:08:45.358Z,101057.28
2018-05-31T06:11:50.748Z,101058.61
2018-05-31T06:14:56.883Z,101063.36
2018-05-31T06:18:03.100Z,101072.88
2018-05-31T06:21:09.319Z,101071.09
2018-05-31T06:24:14.443Z,101075.81
2018-05-31T06:27:19.852Z,101089.67
2018-05-31T06:30:25.267Z,101087.00
2018-05-31T06:33:31.476Z,101084.35
2018-05-31T06:36:37.508Z,101076.02
2018-05-31T06:39:42.741Z,101077.25
2018-05-31T06:42:48.385Z,101078.44
2018-05-31T06:45:53.326Z,101081.72
2018-05-31T06:48:58.454Z,101074.63
2018-05-31T06:52:03.812Z,101074.44
2018-05-31T06:55:10.351Z,101075.38
2018-05-31T06:58:15.756Z,101072.52
2018-05-31T07:01:21.449Z,101078.66
2018-05-31T07:04:27.637Z,101081.42
2018-05-31T07:07:33.962Z,101092.28
2018-05-31T07:10:39.593Z,101086.62
2018-05-31T07:13:45.583Z,101090.06
2018-05-31T07:16:50.811Z,101091.03
2018-05-31T07:19:56.033Z,101099.41
2018-05-31T07:23:01.930Z,101096.88
2018-05-31T07:26:08.056Z,101101.28
2018-05-31T07:29:13.668Z,101101.78
2018-05-31T07:32:18.887Z,101103.95
2018-05-31T07:35:25.229Z,101104.34
2018-05-31T07:38:31.336Z,101104.27
2018-05-31T07:41:37.383Z,101106.38
2018-05-31T07:44:43.714Z,101097.15
2018-05-31T07:47:48.660Z,101098.77
2018-05-31T07:50:53.589Z,101101.69
2018-05-31T07:53:59.213Z,101108.11
2018-05-31T07:57:05.357Z,101103.67
2018-05-31T08:00:10.860Z,101096.94
2018-05-31T08:03:16.905Z,101100.67
2018-05-31T08:06:22.116Z,101099.72
2018-05-31T08:09:27.748Z,101091.18
2018-05-31T08:12:33.641Z,101097.13
2018-05-31T08:15:40.393Z,101095.26
2018-05-31T08:18:46.039Z,101107.41
2018-05-31T08:21:51.886Z,101108.98
2018-05-31T08:24:57.115Z,101107.84
2018-05-31T08:28:02.340Z,101111.42
2018-05-31T08:31:07.556Z,101109.75
2018-05-31T08:34:12.769Z,101115.48
2018-05-31T08:37:18.568Z,101114.55
2018-05-31T08:40:23.573Z,101117.46
2018-05-31T08:43:28.509Z,101115.13
2018-05-31T08:46:33.969Z,101114.59
2018-05-31T08:49:39.191Z,101114.72
2018-05-31T08:52:45.332Z,101111.70
2018-05-31T08:55:50.289Z,101121.81
2018-05-31T08:58:56.633Z,101109.71
2018-05-31T09:02:01.858Z,101111.53
2018-05-31T09:05:06.930Z,101115.03
2018-05-31T09:08:12.984Z,101118.94
2018-05-31T09:11:17.866Z,101117.14
2018-05-31T09:14:23.799Z,101118.13
2018-05-31T09:17:29.020Z,101123.86
2018-05-31T09:20:34.940Z,101119.24
2018-05-31T09:23:41.073Z,101115.52
2018-05-31T09:26:46.717Z,101120.05
2018-05-31T09:29:52.778Z,101120.01
2018-05-31T09:32:58.001Z,101120.98
2018-05-31T09:36:04.124Z,101124.56
2018-05-31T09:39:09.757Z,101113.55
2018-05-31T09:42:14.683Z,101113.52
2018-05-31T09:45:19.896Z,101114.80
2018-05-31T09:48:25.512Z,101117.03
2018-05-31T09:51:31.636Z,101118.27
2018-05-31T09:54:37.769Z,101116.45
2018-05-31T09:57:42.712Z,101118.09
2018-05-31T10:00:47.916Z,101119.08
2018-05-31T10:03:53.566Z,101115.06
2018-05-31T10:06:58.975Z,101115.20
2018-05-31T10:10:03.940Z,101108.95
2018-05-31T10:13:09.421Z,101116.10
2018-05-31T10:16:15.060Z,101115.41
2018-05-31T10:19:20.263Z,101116.73
2018-05-31T10:22:26.497Z,101113.27
2018-05-31T10:25:32.032Z,101113.09
2018-05-31T10:28:37.780Z,101108.45
2018-05-31T10:31:43.805Z,101108.52
2018-05-31T10:34:50.057Z,101108.34
2018-05-31T10:37:55.255Z,101104.63
2018-05-31T10:41:00.707Z,101093.14
2018-05-31T10:44:05.891Z,101103.42
2018-05-31T10:47:11.035Z,101098.49
2018-05-31T10:50:16.765Z,101098.31
2018-05-31T10:53:22.900Z,101099.50
2018-05-31T10:56:27.841Z,101090.50
2018-05-31T10:59:33.049Z,101093.34
2018-05-31T11:02:39.192Z,101087.47
2018-05-31T11:05:44.410Z,101083.38
2018-05-31T11:08:50.067Z,101078.10
2018-05-31T11:11:55.991Z,101081.64
2018-05-31T11:15:02.252Z,101084.05
2018-05-31T11:18:07.582Z,101076.03
2018-05-31T11:21:13.740Z,101074.45
2018-05-31T11:24:19.360Z,101074.44
2018-05-31T11:27:24.599Z,101068.66
2018-05-31T11:30:29.800Z,101062.78
2018-05-31T11:33:35.020Z,101067.69
2018-05-31T11:36:40.402Z,101065.42
2018-05-31T11:39:45.607Z,101061.03
2018-05-31T11:42:50.819Z,101063.30
2018-05-31T11:45:56.078Z,101054.42
2018-05-31T11:49:02.203Z,101059.14
2018-05-31T11:52:07.835Z,101048.22
2018-05-31T11:55:13.982Z,101047.75
2018-05-31T11:58:19.593Z,101046.64
2018-05-31T12:01:25.285Z,101037.25
2018-05-31T12:04:30.911Z,101038.99
2018-05-31T12:07:37.024Z,101045.04
2018-05-31T12:10:42.997Z,101038.47
2018-05-31T12:13:48.995Z,101046.52
2018-05-31T12:16:54.833Z,101047.73
2018-05-31T12:20:00.961Z,101039.12
2018-05-31T12:23:06.973Z,101037.52
2018-05-31T12:26:13.123Z,101034.63
2018-05-31T12:29:19.381Z,101038.30
2018-05-31T12:32:24.993Z,101038.84
2018-05-31T12:35:31.034Z,101039.16
2018-05-31T12:38:36.260Z,101035.11
2018-05-31T12:41:41.608Z,101031.86
2018-05-31T12:44:46.536Z,101039.45
2018-05-31T12:47:53.590Z,101038.56
2018-05-31T12:50:59.210Z,101031.17
2018-05-31T12:54:04.449Z,101040.05
2018-05-31T12:57:10.129Z,101036.84
2018-05-31T13:00:15.340Z,101032.19
2018-05-31T13:03:20.273Z,101044.52
2018-05-31T13:06:25.472Z,101042.60
2018-05-31T13:09:30.689Z,101034.48
2018-05-31T13:12:36.926Z,101037.50
2018-05-31T13:15:42.943Z,101034.58
2018-05-31T13:18:48.962Z,101029.09
2018-05-31T13:21:55.084Z,101038.00
2018-05-31T13:25:00.283Z,101038.79
2018-05-31T13:28:06.315Z,101033.63
2018-05-31T13:31:13.746Z,101031.83
2018-05-31T13:34:19.650Z,101033.15
2018-05-31T13:37:25.480Z,101035.19
2018-05-31T13:40:31.329Z,101026.09
2018-05-31T13:43:36.531Z,101033.55
2018-05-31T13:46:42.158Z,101025.61
2018-05-31T13:49:47.095Z,101035.06
2018-05-31T13:52:53.214Z,101031.81
2018-05-31T13:55:58.997Z,101026.12
2018-05-31T13:59:04.054Z,101027.53
2018-05-31T14:02:10.004Z,101024.67
2018-05-31T14:05:15.833Z,101015.11
2018-05-31T14:08:21.046Z,101021.81
2018-05-31T14:11:26.015Z,101020.05
2018-05-31T14:14:31.348Z,101016.87
2018-05-31T14:17:36.564Z,101016.56
2018-05-31T14:20:41.846Z,101016.78
2018-05-31T14:23:47.013Z,101016.78
2018-05-31T14:26:52.644Z,101009.34
2018-05-31T14:29:58.768Z,101012.09
2018-05-31T14:33:03.994Z,101005.58
2018-05-31T14:36:10.069Z,101010.95
2018-05-31T14:39:16.188Z,101000.88
2018-05-31T14:42:22.113Z,101009.32
2018-05-31T14:45:27.836Z,101000.98
2018-05-31T14:48:34.136Z,101003.41
2018-05-31T14:51:39.932Z,100998.81
2018-05-31T14:54:45.212Z,101002.12
2018-05-31T14:57:50.438Z,100999.63
2018-05-31T15:00:56.562Z,100990.22
2018-05-31T15:04:02.241Z,100995.61
2018-05-31T15:07:08.421Z,100994.44
2018-05-31T15:10:14.534Z,100995.86
2018-05-31T15:13:20.657Z,101003.34
2018-05-31T15:16:26.252Z,101008.28
2018-05-31T15:19:31.476Z,101011.66
2018-05-31T15:22:36.672Z,101008.16
2018-05-31T15:25:42.844Z,101004.45
2018-05-31T15:28:48.953Z,101003.58
2018-05-31T15:31:54.584Z,101009.46
2018-05-31T15:35:00.659Z,101002.91
2018-05-31T15:38:05.869Z,101006.41
2018-05-31T15:41:11.104Z,100998.77
2018-05-31T15:44:16.333Z,100996.53
2018-05-31T15:47:22.197Z,101004.96
2018-05-31T15:50:28.346Z,100995.46
2018-05-31T15:53:34.254Z,100994.52
2018-05-31T15:56:40.225Z,100985.36
2018-05-31T15:59:45.769Z,100985.86
2018-05-31T16:02:51.564Z,100983.06
2018-05-31T16:05:57.739Z,100976.11
2018-05-31T16:09:02.734Z,100984.08
2018-05-31T16:12:08.836Z,100991.41
2018-05-31T16:15:16.420Z,100985.05
2018-05-31T16:18:22.227Z,100982.41
2018-05-31T16:21:27.141Z,100977.78
2018-05-31T16:24:33.392Z,100978.41
2018-05-31T16:27:39.290Z,100974.19
2018-05-31T16:30:45.248Z,100979.27
2018-05-31T16:33:51.529Z,100971.99
2018-05-31T16:36:57.427Z,100970.00
2018-05-31T16:40:02.717Z,100980.55
2018-05-31T16:43:07.635Z,100972.96
2018-05-31T16:46:13.336Z,100978.81
2018-05-31T16:49:19.604Z,100973.70
2018-05-31T16:52:25.511Z,100975.80
2018-05-31T16:55:31.696Z,100972.47
2018-05-31T16:58:36.911Z,100982.39
2018-05-31T17:01:42.139Z,100977.94
2018-05-31T17:04:48.402Z,100976.77
2018-05-31T17:07:54.308Z,100978.36
2018-05-31T17:11:00.120Z,100981.72
2018-05-31T17:14:05.325Z,100980.13
2018-05-31T17:17:10.937Z,100987.13
2018-05-31T17:20:16.960Z,100988.34
2018-05-31T17:23:23.104Z,100982.83
2018-05-31T17:26:29.215Z,100980.31
2018-05-31T17:29:36.591Z,100983.23
2018-05-31T17:32:45.265Z,100982.53
2018-05-31T17:35:50.487Z,100979.27
2018-05-31T17:38:55.696Z,100978.67
2018-05-31T17:42:01.059Z,100974.36
2018-05-31T17:45:07.388Z,100966.17
2018-05-31T17:48:12.589Z,100973.75
2018-05-31T17:51:17.808Z,100973.69
2018-05-31T17:54:23.022Z,100973.63
2018-05-31T17:57:28.229Z,100974.13
2018-05-31T18:00:34.721Z,100972.11
2018-05-31T18:03:39.939Z,100978.71
2018-05-31T18:06:45.772Z,100984.30
2018-05-31T18:09:51.698Z,100982.31
2018-05-31T18:12:57.704Z,100978.92
2018-05-31T18:16:03.640Z,100983.50
2018-05-31T18:19:09.463Z,100987.84
2018-05-31T18:22:15.436Z,100991.30
2018-05-31T18:25:20.640Z,100988.55
2018-05-31T18:28:26.375Z,100991.96
2018-05-31T18:31:31.580Z,100998.69
2018-05-31T18:34:37.294Z,101002.08
2018-05-31T18:37:43.285Z,101004.08
2018-05-31T18:40:49.229Z,101009.94
2018-05-31T18:43:54.866Z,101013.87
2018-05-31T18:47:01.172Z,101017.16
2018-05-31T18:50:07.205Z,101013.77
2018-05-31T18:53:13.142Z,101010.74
2018-05-31T18:56:19.080Z,101016.41
2018-05-31T18:59:25.028Z,101019.34
2018-05-31T19:02:31.141Z,101014.62
2018-05-31T19:05:37.154Z,101020.07
2018-05-31T19:08:43.165Z,101027.30
2018-05-31T19:11:48.984Z,101023.88
2018-05-31T19:14:54.477Z,101027.13
2018-05-31T19:18:00.341Z,101033.73
2018-05-31T19:21:05.407Z,101032.92
2018-05-31T19:24:16.239Z,101035.16
2018-05-31T19:27:22.218Z,101043.33
2018-05-31T19:30:33.407Z,101047.20
2018-05-31T19:33:38.322Z,101054.75
2018-05-31T19:36:49.266Z,101058.65
2018-05-31T19:39:55.137Z,101063.09
2018-05-31T19:43:06.176Z,101067.47
2018-05-31T19:46:12.005Z,101067.37
2018-05-31T19:49:16.959Z,101065.34
2018-05-31T19:52:27.597Z,101060.97
2018-05-31T19:55:33.521Z,101058.84
2018-05-31T19:58:44.929Z,101056.22
2018-05-31T20:01:55.236Z,101051.93
2018-05-31T20:05:00.154Z,101053.12
2018-05-31T20:08:05.790Z,101054.91
2018-05-31T20:11:11.022Z,101055.11
2018-05-31T20:14:17.101Z,101055.95
2018-05-31T20:17:22.889Z,101060.61
2018-05-31T20:20:28.845Z,101058.08
2018-05-31T20:23:34.673Z,101063.01
2018-05-31T20:26:40.282Z,101065.77
2018-05-31T20:29:46.314Z,101066.51
2018-05-31T20:32:52.062Z,101070.47
2018-05-31T20:35:57.316Z,101065.77
2018-05-31T20:39:02.916Z,101067.91
2018-05-31T20:42:08.252Z,101069.31
2018-05-31T20:45:13.446Z,101063.92
2018-05-31T20:48:18.650Z,101056.67
2018-05-31T20:51:23.581Z,101048.70
2018-05-31T20:54:29.376Z,101050.63
2018-05-31T20:57:35.481Z,101053.33
2018-05-31T21:00:40.821Z,101048.62
2018-05-31T21:03:46.036Z,101049.51
2018-05-31T21:06:51.932Z,101050.01
2018-05-31T21:09:57.554Z,101046.50
2018-05-31T21:13:03.715Z,101046.25
2018-05-31T21:16:09.452Z,101049.83
2018-05-31T21:19:14.437Z,101055.58
2018-05-31T21:22:20.315Z,101053.20
2018-05-31T21:25:26.203Z,101061.91
2018-05-31T21:28:31.141Z,101063.68
2018-05-31T21:31:37.340Z,101058.52
2018-05-31T21:34:42.335Z,101052.48
2018-05-31T21:37:47.273Z,101052.81
2018-05-31T21:40:53.115Z,101056.53
2018-05-31T21:43:58.067Z,101054.13
2018-05-31T21:47:03.716Z,101059.89
2018-05-31T21:50:08.924Z,101054.17
2018-05-31T21:53:15.107Z,101054.50
2018-05-31T21:56:21.026Z,101054.52
2018-05-31T21:59:26.665Z,101053.12
2018-05-31T22:02:32.024Z,101049.47
2018-05-31T22:05:36.972Z,101048.58
2018-05-31T22:08:43.104Z,101048.08
2018-05-31T22:11:48.636Z,101043.70
2018-05-31T22:14:53.591Z,101038.66
2018-05-31T22:17:58.515Z,101043.55
2018-05-31T22:21:03.443Z,101039.95
2018-05-31T22:24:08.132Z,101040.78
2018-05-31T22:27:14.276Z,101042.98
2018-05-31T22:30:20.227Z,101034.69
2018-05-31T22:33:25.411Z,101038.44
2018-05-31T22:36:31.249Z,101032.72
2018-05-31T22:39:36.775Z,101030.11
2018-05-31T22:42:41.708Z,101023.37
2018-05-31T22:45:47.541Z,101025.50
2018-05-31T22:48:52.783Z,101032.92
2018-05-31T22:51:58.889Z,101031.56
2018-05-31T22:55:04.132Z,101028.95
2018-05-31T22:58:09.332Z,101034.53
2018-05-31T23:01:15.169Z,101035.61
2018-05-31T23:04:20.356Z,101040.04
2018-05-31T23:07:25.293Z,101033.34
2018-05-31T23:10:30.514Z,101041.17
2018-05-31T23:13:35.446Z,101044.19
2018-05-31T23:16:41.040Z,101039.39
2018-05-31T23:19:46.892Z,101044.90
2018-05-31T23:22:51.864Z,101046.03
2018-05-31T23:25:58.734Z,101039.39
2018-05-31T23:29:03.937Z,101042.30
2018-05-31T23:32:09.708Z,101049.75
2018-05-31T23:35:14.628Z,101051.80
2018-05-31T23:38:20.539Z,101048.09
2018-05-31T23:41:26.650Z,101057.20
2018-05-31T23:44:32.786Z,101060.80
2018-05-31T23:47:38.887Z,101062.99
2018-05-31T23:50:44.517Z,101059.45
2018-05-31T23:53:49.713Z,101067.79
2018-05-31T23:56:54.929Z,101060.99
